sensor_id;sensor_type;location;lat;lon;timestamp;pressure;altitude;pressure_sealevel;temperature;humidity
33949;BME280;20229;49.856;19.030;2023-05-20T00:02:21;102463.52;;;11.76;100.00
33949;BME280;20229;49.856;19.030;2023-05-20T00:07:35;102460.95;;;11.71;100.00
33949;BME280;20229;49.856;19.030;2023-05-20T00:12:49;102464.52;;;11.73;100.00
33949;BME280;20229;49.856;19.030;2023-05-20T00:18:03;102458.22;;;11.71;100.00
33949;BME280;20229;49.856;19.030;2023-05-20T00:23:20;102463.78;;;11.68;100.00
33949;BME280;20229;49.856;19.030;2023-05-20T00:28:34;102462.89;;;11.67;100.00
33949;BME280;20229;49.856;19.030;2023-05-20T00:33:48;102449.24;;;11.66;100.00
33949;BME280;20229;49.856;19.030;2023-05-20T00:39:02;102450.20;;;11.65;100.00
33949;BME280;20229;49.856;19.030;2023-05-20T00:44:16;102450.30;;;11.62;100.00
33949;BME280;20229;49.856;19.030;2023-05-20T00:49:32;102449.48;;;11.60;100.00
33949;BME280;20229;49.856;19.030;2023-05-20T00:54:46;102454.05;;;11.59;100.00
33949;BME280;20229;49.856;19.030;2023-05-20T01:00:00;102445.88;;;11.58;100.00
33949;BME280;20229;49.856;19.030;2023-05-20T01:05:14;102440.41;;;11.58;100.00
33949;BME280;20229;49.856;19.030;2023-05-20T01:10:29;102447.89;;;11.53;100.00
33949;BME280;20229;49.856;19.030;2023-05-20T01:15:45;102446.07;;;11.52;100.00
33949;BME280;20229;49.856;19.030;2023-05-20T01:21:02;102437.04;;;11.49;100.00
33949;BME280;20229;49.856;19.030;2023-05-20T01:26:17;102433.45;;;11.47;100.00
33949;BME280;20229;49.856;19.030;2023-05-20T01:31:36;102442.52;;;11.49;100.00
33949;BME280;20229;49.856;19.030;2023-05-20T01:36:51;102447.98;;;11.49;100.00
33949;BME280;20229;49.856;19.030;2023-05-20T01:42:06;102446.29;;;11.45;100.00
33949;BME280;20229;49.856;19.030;2023-05-20T01:47:22;102433.45;;;11.47;100.00
33949;BME280;20229;49.856;19.030;2023-05-20T01:52:37;102437.20;;;11.45;100.00
33949;BME280;20229;49.856;19.030;2023-05-20T01:57:51;102439.13;;;11.41;100.00
33949;BME280;20229;49.856;19.030;2023-05-20T02:03:05;102440.14;;;11.39;100.00
33949;BME280;20229;49.856;19.030;2023-05-20T02:08:19;102445.53;;;11.40;100.00
33949;BME280;20229;49.856;19.030;2023-05-20T02:13:33;102447.22;;;11.44;100.00
33949;BME280;20229;49.856;19.030;2023-05-20T02:18:47;102447.34;;;11.41;100.00
33949;BME280;20229;49.856;19.030;2023-05-20T02:24:05;102447.48;;;11.37;100.00
33949;BME280;20229;49.856;19.030;2023-05-20T02:29:20;102446.68;;;11.33;100.00
33949;BME280;20229;49.856;19.030;2023-05-20T02:34:34;102453.19;;;11.29;100.00
33949;BME280;20229;49.856;19.030;2023-05-20T02:39:48;102450.37;;;11.32;100.00
33949;BME280;20229;49.856;19.030;2023-05-20T02:45:02;102456.81;;;11.30;100.00
33949;BME280;20229;49.856;19.030;2023-05-20T02:50:16;102457.70;;;11.30;100.00
33949;BME280;20229;49.856;19.030;2023-05-20T02:55:33;102455.92;;;11.29;100.00
33949;BME280;20229;49.856;19.030;2023-05-20T03:00:47;102462.35;;;11.28;100.00
33949;BME280;20229;49.856;19.030;2023-05-20T03:06:01;102456.97;;;11.25;100.00
33949;BME280;20229;49.856;19.030;2023-05-20T03:11:15;102457.12;;;11.20;100.00
33949;BME280;20229;49.856;19.030;2023-05-20T03:16:29;102457.21;;;11.17;100.00
33949;BME280;20229;49.856;19.030;2023-05-20T03:21:43;102459.05;;;11.17;100.00
33949;BME280;20229;49.856;19.030;2023-05-20T03:26:56;102461.88;;;11.14;100.00
33949;BME280;20229;49.856;19.030;2023-05-20T03:32:10;102467.25;;;11.17;100.00
33949;BME280;20229;49.856;19.030;2023-05-20T03:37:24;102467.25;;;11.17;100.00
33949;BME280;20229;49.856;19.030;2023-05-20T03:42:39;102486.31;;;11.18;100.00
33949;BME280;20229;49.856;19.030;2023-05-20T03:47:53;102470.81;;;11.19;100.00
33949;BME280;20229;49.856;19.030;2023-05-20T03:53:07;102468.95;;;11.21;100.00
33949;BME280;20229;49.856;19.030;2023-05-20T03:58:22;102475.41;;;11.18;100.00
33949;BME280;20229;49.856;19.030;2023-05-20T04:03:35;102473.61;;;11.17;100.00
33949;BME280;20229;49.856;19.030;2023-05-20T04:08:49;102479.97;;;11.18;100.00
33949;BME280;20229;49.856;19.030;2023-05-20T04:14:07;102481.84;;;11.16;100.00
33949;BME280;20229;49.856;19.030;2023-05-20T04:19:23;102487.22;;;11.19;100.00
33949;BME280;20229;49.856;19.030;2023-05-20T04:24:40;102481.75;;;11.19;100.00
33949;BME280;20229;49.856;19.030;2023-05-20T04:29:54;102480.80;;;11.20;100.00
33949;BME280;20229;49.856;19.030;2023-05-20T04:35:08;102476.26;;;11.20;100.00
33949;BME280;20229;49.856;19.030;2023-05-20T04:40:25;102476.93;;;11.27;100.00
33949;BME280;20229;49.856;19.030;2023-05-20T04:45:39;102478.41;;;11.39;100.00
33949;BME280;20229;49.856;19.030;2023-05-20T04:50:54;102482.99;;;11.38;100.00
33949;BME280;20229;49.856;19.030;2023-05-20T04:56:08;102472.05;;;11.38;100.00
33949;BME280;20229;49.856;19.030;2023-05-20T05:01:22;102476.41;;;11.44;100.00
33949;BME280;20229;49.856;19.030;2023-05-20T05:06:36;102474.45;;;11.49;100.00
33949;BME280;20229;49.856;19.030;2023-05-20T05:11:50;102475.24;;;11.53;100.00
33949;BME280;20229;49.856;19.030;2023-05-20T05:17:04;102458.51;;;11.62;100.00
33949;BME280;20229;49.856;19.030;2023-05-20T05:22:17;102471.19;;;11.64;99.76
33949;BME280;20229;49.856;19.030;2023-05-20T05:27:31;102469.25;;;11.68;99.91
33949;BME280;20229;49.856;19.030;2023-05-20T05:32:45;102471.12;;;11.66;99.60
33949;BME280;20229;49.856;19.030;2023-05-20T05:37:59;102474.54;;;11.74;99.90
33949;BME280;20229;49.856;19.030;2023-05-20T05:43:13;102475.16;;;11.82;99.99
33949;BME280;20229;49.856;19.030;2023-05-20T05:48:27;102474.15;;;11.86;99.19
33949;BME280;20229;49.856;19.030;2023-05-20T05:53:41;102473.84;;;11.95;99.34
33949;BME280;20229;49.856;19.030;2023-05-20T05:58:55;102464.37;;;12.06;98.38
33949;BME280;20229;49.856;19.030;2023-05-20T06:04:09;102466.73;;;12.16;97.89
33949;BME280;20229;49.856;19.030;2023-05-20T06:09:23;102468.64;;;12.39;97.78
33949;BME280;20229;49.856;19.030;2023-05-20T06:14:37;102468.98;;;12.80;96.44
33949;BME280;20229;49.856;19.030;2023-05-20T06:19:50;102471.70;;;13.29;94.73
33949;BME280;20229;49.856;19.030;2023-05-20T06:25:05;102471.16;;;13.65;92.74
33949;BME280;20229;49.856;19.030;2023-05-20T06:30:19;102472.87;;;14.11;88.97
33949;BME280;20229;49.856;19.030;2023-05-20T06:35:33;102472.62;;;14.78;89.68
33949;BME280;20229;49.856;19.030;2023-05-20T06:40:48;102469.77;;;15.19;85.00
33949;BME280;20229;49.856;19.030;2023-05-20T06:46:02;102462.59;;;15.17;85.23
33949;BME280;20229;49.856;19.030;2023-05-20T06:51:16;102461.78;;;15.34;82.34
33949;BME280;20229;49.856;19.030;2023-05-20T06:56:29;102457.77;;;15.41;83.24
33949;BME280;20229;49.856;19.030;2023-05-20T07:01:43;102454.82;;;15.82;82.72
33949;BME280;20229;49.856;19.030;2023-05-20T07:06:58;102446.68;;;16.32;79.89
33949;BME280;20229;49.856;19.030;2023-05-20T07:12:11;102441.39;;;16.62;79.92
33949;BME280;20229;49.856;19.030;2023-05-20T07:17:26;102442.40;;;16.61;77.27
33949;BME280;20229;49.856;19.030;2023-05-20T07:22:41;102438.80;;;16.59;78.21
33949;BME280;20229;49.856;19.030;2023-05-20T07:27:56;102437.95;;;16.92;75.96
33949;BME280;20229;49.856;19.030;2023-05-20T07:33:12;102438.41;;;18.71;72.67
33949;BME280;20229;49.856;19.030;2023-05-20T07:38:25;102437.59;;;19.41;67.53
33949;BME280;20229;49.856;19.030;2023-05-20T07:43:39;102422.84;;;20.74;61.47
33949;BME280;20229;49.856;19.030;2023-05-20T07:48:53;102421.55;;;22.73;60.63
33949;BME280;20229;49.856;19.030;2023-05-20T07:54:06;102415.67;;;23.11;58.44
33949;BME280;20229;49.856;19.030;2023-05-20T07:59:20;102421.11;;;24.54;55.97
33949;BME280;20229;49.856;19.030;2023-05-20T08:04:34;102411.20;;;25.13;49.83
33949;BME280;20229;49.856;19.030;2023-05-20T08:09:50;102412.13;;;28.36;47.83
33949;BME280;20229;49.856;19.030;2023-05-20T08:15:04;102385.31;;;30.62;39.38
33949;BME280;20229;49.856;19.030;2023-05-20T08:20:19;102386.38;;;30.20;39.83
33949;BME280;20229;49.856;19.030;2023-05-20T08:25:33;102388.56;;;27.93;43.32
33949;BME280;20229;49.856;19.030;2023-05-20T08:30:46;102378.34;;;26.82;45.80
33949;BME280;20229;49.856;19.030;2023-05-20T08:36:01;102370.94;;;25.95;47.60
33949;BME280;20229;49.856;19.030;2023-05-20T08:41:15;102371.16;;;25.63;47.29
33949;BME280;20229;49.856;19.030;2023-05-20T08:46:30;102368.03;;;25.06;48.83
33949;BME280;20229;49.856;19.030;2023-05-20T08:51:43;102361.95;;;24.91;50.08
33949;BME280;20229;49.856;19.030;2023-05-20T08:57:00;102362.95;;;24.39;52.50
33949;BME280;20229;49.856;19.030;2023-05-20T09:02:14;102358.63;;;24.34;54.29
33949;BME280;20229;49.856;19.030;2023-05-20T09:07:28;102359.58;;;24.24;50.63
33949;BME280;20229;49.856;19.030;2023-05-20T09:12:43;102362.52;;;24.22;52.42
33949;BME280;20229;49.856;19.030;2023-05-20T09:18:01;102356.59;;;24.16;56.12
33949;BME280;20229;49.856;19.030;2023-05-20T09:23:18;102351.23;;;24.03;55.96
33949;BME280;20229;49.856;19.030;2023-05-20T09:28:35;102355.01;;;24.02;54.61
33949;BME280;20229;49.856;19.030;2023-05-20T09:35:05;102346.25;;;23.74;54.77
33949;BME280;20229;49.856;19.030;2023-05-20T09:40:35;102344.66;;;23.60;56.30
33949;BME280;20229;49.856;19.030;2023-05-20T09:45:53;102337.91;;;23.63;57.52
33949;BME280;20229;49.856;19.030;2023-05-20T09:51:10;102339.44;;;23.67;59.98
33949;BME280;20229;49.856;19.030;2023-05-20T09:56:26;102334.22;;;23.74;60.29
33949;BME280;20229;49.856;19.030;2023-05-20T10:01:43;102333.96;;;23.77;60.61
33949;BME280;20229;49.856;19.030;2023-05-20T10:12:33;102336.23;;;23.40;56.07
33949;BME280;20229;49.856;19.030;2023-05-20T10:18:10;102336.93;;;23.53;58.63
33949;BME280;20229;49.856;19.030;2023-05-20T10:23:23;102333.88;;;23.56;60.58
33949;BME280;20229;49.856;19.030;2023-05-20T10:28:40;102313.07;;;23.60;60.15
33949;BME280;20229;49.856;19.030;2023-05-20T10:33:54;102318.13;;;23.66;60.11
33949;BME280;20229;49.856;19.030;2023-05-20T10:39:14;102311.05;;;23.62;61.32
33949;BME280;20229;49.856;19.030;2023-05-20T10:44:40;102310.85;;;23.43;59.99
33949;BME280;20229;49.856;19.030;2023-05-20T10:49:55;102311.15;;;23.40;60.37
33949;BME280;20229;49.856;19.030;2023-05-20T10:55:17;102302.54;;;23.63;59.35
33949;BME280;20229;49.856;19.030;2023-05-20T11:00:35;102304.50;;;23.52;59.27
33949;BME280;20229;49.856;19.030;2023-05-20T11:05:49;102294.47;;;23.60;58.95
33949;BME280;20229;49.856;19.030;2023-05-20T11:11:04;102281.83;;;23.45;59.33
33949;BME280;20229;49.856;19.030;2023-05-20T11:16:19;102276.66;;;23.41;59.88
33949;BME280;20229;49.856;19.030;2023-05-20T11:21:43;102276.45;;;23.65;59.53
33949;BME280;20229;49.856;19.030;2023-05-20T11:26:59;102270.92;;;23.85;57.99
33949;BME280;20229;49.856;19.030;2023-05-20T11:32:14;102264.39;;;23.75;59.89
33949;BME280;20229;49.856;19.030;2023-05-20T11:37:28;102272.52;;;23.67;59.75
33949;BME280;20229;49.856;19.030;2023-05-20T11:42:44;102257.80;;;23.65;58.21
33949;BME280;20229;49.856;19.030;2023-05-20T11:48:03;102271.55;;;23.89;60.75
33949;BME280;20229;49.856;19.030;2023-05-20T11:53:20;102272.81;;;24.06;60.90
33949;BME280;20229;49.856;19.030;2023-05-20T11:58:34;102257.77;;;24.18;61.38
33949;BME280;20229;49.856;19.030;2023-05-20T12:03:47;102246.98;;;24.34;59.42
33949;BME280;20229;49.856;19.030;2023-05-20T12:09:03;102239.80;;;24.32;58.18
33949;BME280;20229;49.856;19.030;2023-05-20T12:14:20;102227.89;;;24.61;59.61
33949;BME280;20229;49.856;19.030;2023-05-20T12:19:34;102239.30;;;24.27;56.46
33949;BME280;20229;49.856;19.030;2023-05-20T12:24:49;102240.85;;;23.68;58.84
33949;BME280;20229;49.856;19.030;2023-05-20T12:30:04;102235.17;;;23.26;59.60
33949;BME280;20229;49.856;19.030;2023-05-20T12:40:43;102221.40;;;23.13;60.45
33949;BME280;20229;49.856;19.030;2023-05-20T12:45:56;102210.25;;;23.46;61.06
33949;BME280;20229;49.856;19.030;2023-05-20T12:51:10;102208.39;;;23.67;61.48
33949;BME280;20229;49.856;19.030;2023-05-20T12:56:24;102210.53;;;23.63;62.49
33949;BME280;20229;49.856;19.030;2023-05-20T13:01:39;102197.14;;;23.36;62.94
33949;BME280;20229;49.856;19.030;2023-05-20T13:06:53;102204.31;;;23.18;63.00
33949;BME280;20229;49.856;19.030;2023-05-20T13:12:08;102196.58;;;23.22;63.39
33949;BME280;20229;49.856;19.030;2023-05-20T13:17:22;102186.51;;;23.30;62.64
33949;BME280;20229;49.856;19.030;2023-05-20T13:22:36;102173.66;;;23.39;63.87
33949;BME280;20229;49.856;19.030;2023-05-20T13:27:51;102181.14;;;23.38;62.66
33949;BME280;20229;49.856;19.030;2023-05-20T13:33:05;102173.67;;;23.18;63.68
33949;BME280;20229;49.856;19.030;2023-05-20T13:38:19;102161.30;;;23.00;64.33
33949;BME280;20229;49.856;19.030;2023-05-20T13:43:33;102153.26;;;22.74;65.06
33949;BME280;20229;49.856;19.030;2023-05-20T13:48:47;102157.94;;;22.74;64.64
33949;BME280;20229;49.856;19.030;2023-05-20T13:54:00;102137.06;;;22.79;64.87
33949;BME280;20229;49.856;19.030;2023-05-20T13:59:17;102138.93;;;22.90;64.59
33949;BME280;20229;49.856;19.030;2023-05-20T14:04:31;102127.88;;;23.00;67.16
33949;BME280;20229;49.856;19.030;2023-05-20T14:09:52;102121.82;;;23.27;66.03
33949;BME280;20229;49.856;19.030;2023-05-20T14:15:07;102116.98;;;23.50;65.61
33949;BME280;20229;49.856;19.030;2023-05-20T14:20:21;102105.43;;;23.54;65.18
33949;BME280;20229;49.856;19.030;2023-05-20T14:25:34;102105.43;;;23.54;63.42
33949;BME280;20229;49.856;19.030;2023-05-20T14:30:49;102095.63;;;23.39;64.52
33949;BME280;20229;49.856;19.030;2023-05-20T14:36:03;102104.76;;;23.41;65.61
33949;BME280;20229;49.856;19.030;2023-05-20T14:41:17;102100.59;;;23.35;64.88
33949;BME280;20229;49.856;19.030;2023-05-20T14:46:31;102109.52;;;23.29;64.47
33949;BME280;20229;49.856;19.030;2023-05-20T14:51:45;102101.34;;;23.17;65.05
33949;BME280;20229;49.856;19.030;2023-05-20T14:56:59;102102.46;;;22.93;65.39
33949;BME280;20229;49.856;19.030;2023-05-20T15:02:13;102092.78;;;22.76;65.72
33949;BME280;20229;49.856;19.030;2023-05-20T15:07:29;102075.83;;;22.68;66.03
33949;BME280;20229;49.856;19.030;2023-05-20T15:12:43;102078.97;;;22.75;66.42
33949;BME280;20229;49.856;19.030;2023-05-20T15:17:57;102060.67;;;22.61;66.60
33949;BME280;20229;49.856;19.030;2023-05-20T15:23:11;102059.69;;;22.51;66.98
33949;BME280;20229;49.856;19.030;2023-05-20T15:28:25;102058.85;;;22.39;68.01
33949;BME280;20229;49.856;19.030;2023-05-20T15:33:43;102039.77;;;22.34;68.97
33949;BME280;20229;49.856;19.030;2023-05-20T15:38:57;102045.23;;;22.25;67.96
33949;BME280;20229;49.856;19.030;2023-05-20T15:44:11;102049.65;;;22.27;68.60
33949;BME280;20229;49.856;19.030;2023-05-20T15:49:25;102041.57;;;22.24;67.92
33949;BME280;20229;49.856;19.030;2023-05-20T15:54:38;102036.26;;;22.21;68.28
33949;BME280;20229;49.856;19.030;2023-05-20T15:59:52;102033.73;;;22.18;69.07
33949;BME280;20229;49.856;19.030;2023-05-20T16:05:06;102018.07;;;22.17;69.84
33949;BME280;20229;49.856;19.030;2023-05-20T16:10:21;102028.43;;;22.15;69.85
33949;BME280;20229;49.856;19.030;2023-05-20T16:15:35;102022.35;;;22.10;69.03
33949;BME280;20229;49.856;19.030;2023-05-20T16:20:50;102020.23;;;22.02;69.76
33949;BME280;20229;49.856;19.030;2023-05-20T16:26:04;102010.63;;;21.95;69.74
33949;BME280;20229;49.856;19.030;2023-05-20T16:31:18;102015.54;;;22.03;69.75
33949;BME280;20229;49.856;19.030;2023-05-20T16:36:33;101998.82;;;22.14;69.28
33949;BME280;20229;49.856;19.030;2023-05-20T16:41:49;102005.91;;;22.18;69.90
33949;BME280;20229;49.856;19.030;2023-05-20T16:47:05;102002.26;;;22.17;69.46
33949;BME280;20229;49.856;19.030;2023-05-20T16:52:19;102005.41;;;22.13;68.94
33949;BME280;20229;49.856;19.030;2023-05-20T16:57:33;102014.02;;;22.10;69.23
33949;BME280;20229;49.856;19.030;2023-05-20T17:02:47;102020.23;;;22.02;69.16
33949;BME280;20229;49.856;19.030;2023-05-20T17:08:02;102010.25;;;21.88;69.79
33949;BME280;20229;49.856;19.030;2023-05-20T17:13:16;102010.38;;;21.76;70.03
33949;BME280;20229;49.856;19.030;2023-05-20T17:18:29;102009.77;;;21.61;70.48
33949;BME280;20229;49.856;19.030;2023-05-20T17:23:43;102006.99;;;21.50;71.27
33949;BME280;20229;49.856;19.030;2023-05-20T17:28:57;102014.55;;;21.36;72.17
33949;BME280;20229;49.856;19.030;2023-05-20T17:34:11;102019.82;;;21.28;71.84
33949;BME280;20229;49.856;19.030;2023-05-20T17:39:27;102015.00;;;21.19;71.86
33949;BME280;20229;49.856;19.030;2023-05-20T17:44:40;102025.21;;;21.07;72.47
33949;BME280;20229;49.856;19.030;2023-05-20T17:49:54;102022.27;;;20.97;72.41
33949;BME280;20229;49.856;19.030;2023-05-20T17:55:08;102026.04;;;20.85;73.31
33949;BME280;20229;49.856;19.030;2023-05-20T18:00:23;102021.34;;;20.74;73.02
33949;BME280;20229;49.856;19.030;2023-05-20T18:05:39;102024.05;;;20.63;73.13
33949;BME280;20229;49.856;19.030;2023-05-20T18:10:53;102024.14;;;20.50;73.19
33949;BME280;20229;49.856;19.030;2023-05-20T18:16:08;102039.68;;;20.40;73.89
33949;BME280;20229;49.856;19.030;2023-05-20T18:21:23;102042.26;;;20.30;73.21
33949;BME280;20229;49.856;19.030;2023-05-20T18:26:37;102046.09;;;20.17;74.74
33949;BME280;20229;49.856;19.030;2023-05-20T18:31:51;102038.29;;;19.98;75.85
33949;BME280;20229;49.856;19.030;2023-05-20T18:37:04;102046.19;;;19.78;76.37
33949;BME280;20229;49.856;19.030;2023-05-20T18:42:20;102040.30;;;19.57;77.05
33949;BME280;20229;49.856;19.030;2023-05-20T18:47:33;102048.73;;;19.43;77.61
33949;BME280;20229;49.856;19.030;2023-05-20T18:52:48;102043.10;;;19.32;78.22
33949;BME280;20229;49.856;19.030;2023-05-20T18:58:03;102046.97;;;19.17;78.51
33949;BME280;20229;49.856;19.030;2023-05-20T19:03:17;102048.95;;;19.02;79.01
33949;BME280;20229;49.856;19.030;2023-05-20T19:08:30;102056.68;;;18.84;79.49
33949;BME280;20229;49.856;19.030;2023-05-20T19:13:44;102063.22;;;18.69;79.70
33949;BME280;20229;49.856;19.030;2023-05-20T19:18:58;102075.35;;;18.53;80.67
33949;BME280;20229;49.856;19.030;2023-05-20T19:24:12;102074.20;;;18.43;81.28
33949;BME280;20229;49.856;19.030;2023-05-20T19:29:26;102078.98;;;18.27;81.44
33949;BME280;20229;49.856;19.030;2023-05-20T19:34:39;102068.76;;;18.14;81.97
33949;BME280;20229;49.856;19.030;2023-05-20T19:39:54;102067.30;;;17.95;83.09
33949;BME280;20229;49.856;19.030;2023-05-20T19:45:10;102067.52;;;17.77;83.31
33949;BME280;20229;49.856;19.030;2023-05-20T19:50:24;102059.52;;;17.58;84.11
33949;BME280;20229;49.856;19.030;2023-05-20T19:55:39;102056.76;;;17.44;84.41
33949;BME280;20229;49.856;19.030;2023-05-20T20:00:53;102061.27;;;17.31;84.99
33949;BME280;20229;49.856;19.030;2023-05-20T20:06:09;102060.19;;;17.19;85.19
33949;BME280;20229;49.856;19.030;2023-05-20T20:11:23;102060.87;;;17.08;86.03
33949;BME280;20229;49.856;19.030;2023-05-20T20:16:36;102067.93;;;16.98;86.35
33949;BME280;20229;49.856;19.030;2023-05-20T20:21:51;102072.34;;;16.86;87.43
33949;BME280;20229;49.856;19.030;2023-05-20T20:27:06;102058.33;;;16.75;87.09
33949;BME280;20229;49.856;19.030;2023-05-20T20:32:20;102054.39;;;16.63;88.03
33949;BME280;20229;49.856;19.030;2023-05-20T20:37:36;102052.28;;;16.53;87.64
33949;BME280;20229;49.856;19.030;2023-05-20T20:42:51;102053.81;;;16.42;88.33
33949;BME280;20229;49.856;19.030;2023-05-20T20:48:12;102059.78;;;16.35;89.50
33949;BME280;20229;49.856;19.030;2023-05-20T20:53:30;102069.66;;;16.23;88.52
33949;BME280;20229;49.856;19.030;2023-05-20T20:58:44;102065.50;;;16.16;90.68
33949;BME280;20229;49.856;19.030;2023-05-20T21:03:58;102062.27;;;16.08;91.36
33949;BME280;20229;49.856;19.030;2023-05-20T21:09:13;102049.77;;;16.02;90.58
33949;BME280;20229;49.856;19.030;2023-05-20T21:14:28;102054.84;;;15.94;91.04
33949;BME280;20229;49.856;19.030;2023-05-20T21:19:42;102052.16;;;15.92;91.15
33949;BME280;20229;49.856;19.030;2023-05-20T21:24:56;102044.71;;;15.94;92.06
33949;BME280;20229;49.856;19.030;2023-05-20T21:30:10;102051.98;;;15.95;91.81
33949;BME280;20229;49.856;19.030;2023-05-20T21:35:24;102047.53;;;15.93;91.08
33949;BME280;20229;49.856;19.030;2023-05-20T21:40:39;102045.94;;;15.89;92.05
33949;BME280;20229;49.856;19.030;2023-05-20T21:45:56;102038.12;;;15.81;91.49
33949;BME280;20229;49.856;19.030;2023-05-20T21:51:11;102042.10;;;15.75;94.32
33949;BME280;20229;49.856;19.030;2023-05-20T21:56:24;102033.13;;;15.72;94.67
33949;BME280;20229;49.856;19.030;2023-05-20T22:01:39;102026.91;;;15.68;94.79
33949;BME280;20229;49.856;19.030;2023-05-20T22:06:54;102027.24;;;15.62;94.60
33949;BME280;20229;49.856;19.030;2023-05-20T22:12:09;102024.57;;;15.61;93.87
33949;BME280;20229;49.856;19.030;2023-05-20T22:17:23;102032.03;;;15.59;94.37
33949;BME280;20229;49.856;19.030;2023-05-20T22:22:39;102033.16;;;15.54;94.36
33949;BME280;20229;49.856;19.030;2023-05-20T22:27:53;102023.66;;;15.44;94.20
33949;BME280;20229;49.856;19.030;2023-05-20T22:33:07;102033.30;;;15.36;93.67
33949;BME280;20229;49.856;19.030;2023-05-20T22:38:21;102033.08;;;15.23;94.78
33949;BME280;20229;49.856;19.030;2023-05-20T22:43:36;102028.10;;;15.14;93.99
33949;BME280;20229;49.856;19.030;2023-05-20T22:48:50;102043.58;;;14.99;95.57
33949;BME280;20229;49.856;19.030;2023-05-20T22:54:08;102044.21;;;14.87;95.40
33949;BME280;20229;49.856;19.030;2023-05-20T22:59:23;102036.06;;;14.85;96.09
33949;BME280;20229;49.856;19.030;2023-05-20T23:04:38;102034.92;;;14.89;98.33
33949;BME280;20229;49.856;19.030;2023-05-20T23:09:53;102028.29;;;14.93;96.64
33949;BME280;20229;49.856;19.030;2023-05-20T23:15:08;102042.13;;;14.92;96.76
33949;BME280;20229;49.856;19.030;2023-05-20T23:20:24;102039.86;;;14.82;96.06
33949;BME280;20229;49.856;19.030;2023-05-20T23:25:41;102052.25;;;14.74;95.49
33949;BME280;20229;49.856;19.030;2023-05-20T23:30:55;102045.66;;;14.59;96.84
33949;BME280;20229;49.856;19.030;2023-05-20T23:36:09;102042.55;;;14.48;97.51
33949;BME280;20229;49.856;19.030;2023-05-20T23:41:24;102047.81;;;14.35;97.19
33949;BME280;20229;49.856;19.030;2023-05-20T23:46:38;102048.27;;;14.26;97.47
33949;BME280;20229;49.856;19.030;2023-05-20T23:51:54;102043.45;;;14.12;97.32
33949;BME280;20229;49.856;19.030;2023-05-20T23:57:08;102032.12;;;14.01;96.73
